sensor_id;sensor_type;location;lat;lon;timestamp;P1;durP1;ratioP1;P2;durP2;ratioP2
14734;SDS011;7458;49.002;8.472;2022-11-20T00:01:21;18.75;;;15.35;;
14734;SDS011;7458;49.002;8.472;2022-11-20T00:03:51;19.27;;;15.30;;
14734;SDS011;7458;49.002;8.472;2022-11-20T00:06:18;22.52;;;17.58;;
14734;SDS011;7458;49.002;8.472;2022-11-20T00:08:46;20.15;;;16.98;;
14734;SDS011;7458;49.002;8.472;2022-11-20T00:11:14;20.83;;;16.98;;
14734;SDS011;7458;49.002;8.472;2022-11-20T00:13:43;26.98;;;18.17;;
14734;SDS011;7458;49.002;8.472;2022-11-20T00:16:10;17.30;;;15.18;;
14734;SDS011;7458;49.002;8.472;2022-11-20T00:18:38;30.33;;;23.92;;
14734;SDS011;7458;49.002;8.472;2022-11-20T00:21:05;22.05;;;16.77;;
14734;SDS011;7458;49.002;8.472;2022-11-20T00:23:35;20.23;;;16.85;;
14734;SDS011;7458;49.002;8.472;2022-11-20T00:26:07;28.23;;;17.77;;
14734;SDS011;7458;49.002;8.472;2022-11-20T00:28:37;20.45;;;16.50;;
14734;SDS011;7458;49.002;8.472;2022-11-20T00:31:10;20.75;;;16.30;;
14734;SDS011;7458;49.002;8.472;2022-11-20T00:33:39;22.13;;;19.35;;
14734;SDS011;7458;49.002;8.472;2022-11-20T00:36:07;22.25;;;17.88;;
14734;SDS011;7458;49.002;8.472;2022-11-20T00:38:41;21.65;;;18.40;;
14734;SDS011;7458;49.002;8.472;2022-11-20T00:41:09;21.50;;;17.58;;
14734;SDS011;7458;49.002;8.472;2022-11-20T00:43:37;20.70;;;18.63;;
14734;SDS011;7458;49.002;8.472;2022-11-20T00:46:05;22.02;;;17.98;;
14734;SDS011;7458;49.002;8.472;2022-11-20T00:48:40;22.25;;;18.50;;
14734;SDS011;7458;49.002;8.472;2022-11-20T00:51:07;29.35;;;19.38;;
14734;SDS011;7458;49.002;8.472;2022-11-20T00:53:33;29.92;;;19.45;;
14734;SDS011;7458;49.002;8.472;2022-11-20T00:56:04;22.52;;;17.58;;
14734;SDS011;7458;49.002;8.472;2022-11-20T00:58:35;25.27;;;19.52;;
14734;SDS011;7458;49.002;8.472;2022-11-20T01:01:04;20.38;;;17.80;;
14734;SDS011;7458;49.002;8.472;2022-11-20T01:03:52;22.00;;;19.15;;
14734;SDS011;7458;49.002;8.472;2022-11-20T01:06:21;25.98;;;21.10;;
14734;SDS011;7458;49.002;8.472;2022-11-20T01:09:00;23.42;;;19.95;;
14734;SDS011;7458;49.002;8.472;2022-11-20T01:11:32;24.90;;;20.58;;
14734;SDS011;7458;49.002;8.472;2022-11-20T01:14:02;23.67;;;19.08;;
14734;SDS011;7458;49.002;8.472;2022-11-20T01:16:36;23.77;;;18.75;;
14734;SDS011;7458;49.002;8.472;2022-11-20T01:19:06;22.10;;;17.40;;
14734;SDS011;7458;49.002;8.472;2022-11-20T01:21:37;23.15;;;17.55;;
14734;SDS011;7458;49.002;8.472;2022-11-20T01:24:06;23.67;;;18.33;;
14734;SDS011;7458;49.002;8.472;2022-11-20T01:26:36;22.98;;;16.20;;
14734;SDS011;7458;49.002;8.472;2022-11-20T01:29:05;22.83;;;17.08;;
14734;SDS011;7458;49.002;8.472;2022-11-20T01:31:35;23.98;;;18.45;;
14734;SDS011;7458;49.002;8.472;2022-11-20T01:34:04;23.48;;;17.73;;
14734;SDS011;7458;49.002;8.472;2022-11-20T01:36:42;22.88;;;17.85;;
14734;SDS011;7458;49.002;8.472;2022-11-20T01:39:14;22.75;;;17.90;;
14734;SDS011;7458;49.002;8.472;2022-11-20T01:41:46;19.98;;;18.05;;
14734;SDS011;7458;49.002;8.472;2022-11-20T01:44:51;20.90;;;18.08;;
14734;SDS011;7458;49.002;8.472;2022-11-20T01:47:21;21.17;;;18.38;;
14734;SDS011;7458;49.002;8.472;2022-11-20T01:52:41;18.45;;;16.50;;
14734;SDS011;7458;49.002;8.472;2022-11-20T01:55:15;20.17;;;18.05;;
14734;SDS011;7458;49.002;8.472;2022-11-20T01:57:48;25.23;;;17.87;;
14734;SDS011;7458;49.002;8.472;2022-11-20T02:00:16;20.65;;;16.38;;
14734;SDS011;7458;49.002;8.472;2022-11-20T02:02:45;23.20;;;16.30;;
14734;SDS011;7458;49.002;8.472;2022-11-20T02:05:27;19.77;;;16.45;;
14734;SDS011;7458;49.002;8.472;2022-11-20T02:08:19;22.77;;;17.13;;
14734;SDS011;7458;49.002;8.472;2022-11-20T02:10:46;21.40;;;15.35;;
14734;SDS011;7458;49.002;8.472;2022-11-20T02:13:12;23.20;;;17.05;;
14734;SDS011;7458;49.002;8.472;2022-11-20T02:15:56;17.98;;;15.68;;
14734;SDS011;7458;49.002;8.472;2022-11-20T02:18:22;20.50;;;15.23;;
14734;SDS011;7458;49.002;8.472;2022-11-20T02:20:50;17.02;;;14.02;;
14734;SDS011;7458;49.002;8.472;2022-11-20T02:26:05;20.63;;;15.73;;
14734;SDS011;7458;49.002;8.472;2022-11-20T02:28:37;16.23;;;13.35;;
14734;SDS011;7458;49.002;8.472;2022-11-20T02:31:04;19.80;;;15.40;;
14734;SDS011;7458;49.002;8.472;2022-11-20T02:33:30;15.63;;;13.65;;
14734;SDS011;7458;49.002;8.472;2022-11-20T02:35:55;14.15;;;12.65;;
14734;SDS011;7458;49.002;8.472;2022-11-20T02:38:21;19.13;;;14.00;;
14734;SDS011;7458;49.002;8.472;2022-11-20T02:40:47;12.23;;;10.88;;
14734;SDS011;7458;49.002;8.472;2022-11-20T02:43:13;17.55;;;13.32;;
14734;SDS011;7458;49.002;8.472;2022-11-20T02:45:40;16.73;;;12.98;;
14734;SDS011;7458;49.002;8.472;2022-11-20T02:48:06;14.82;;;12.50;;
14734;SDS011;7458;49.002;8.472;2022-11-20T02:50:32;14.85;;;11.55;;
14734;SDS011;7458;49.002;8.472;2022-11-20T02:53:00;14.65;;;11.10;;
14734;SDS011;7458;49.002;8.472;2022-11-20T02:55:26;13.35;;;9.75;;
14734;SDS011;7458;49.002;8.472;2022-11-20T02:57:52;13.68;;;11.00;;
14734;SDS011;7458;49.002;8.472;2022-11-20T03:00:18;9.98;;;8.40;;
14734;SDS011;7458;49.002;8.472;2022-11-20T03:02:43;11.80;;;9.40;;
14734;SDS011;7458;49.002;8.472;2022-11-20T03:05:09;9.38;;;7.43;;
14734;SDS011;7458;49.002;8.472;2022-11-20T03:07:35;12.00;;;9.85;;
14734;SDS011;7458;49.002;8.472;2022-11-20T03:10:01;11.40;;;8.60;;
14734;SDS011;7458;49.002;8.472;2022-11-20T03:12:26;11.70;;;8.50;;
14734;SDS011;7458;49.002;8.472;2022-11-20T03:14:52;14.07;;;10.05;;
14734;SDS011;7458;49.002;8.472;2022-11-20T03:17:18;16.10;;;8.18;;
14734;SDS011;7458;49.002;8.472;2022-11-20T03:19:44;11.73;;;8.50;;
14734;SDS011;7458;49.002;8.472;2022-11-20T03:22:09;10.38;;;8.27;;
14734;SDS011;7458;49.002;8.472;2022-11-20T03:24:35;12.02;;;8.43;;
14734;SDS011;7458;49.002;8.472;2022-11-20T03:27:01;13.35;;;8.10;;
14734;SDS011;7458;49.002;8.472;2022-11-20T03:29:26;11.23;;;7.78;;
14734;SDS011;7458;49.002;8.472;2022-11-20T03:31:52;10.20;;;7.50;;
14734;SDS011;7458;49.002;8.472;2022-11-20T03:34:18;10.20;;;7.90;;
14734;SDS011;7458;49.002;8.472;2022-11-20T03:36:44;8.55;;;7.65;;
14734;SDS011;7458;49.002;8.472;2022-11-20T03:39:09;8.32;;;6.75;;
14734;SDS011;7458;49.002;8.472;2022-11-20T03:41:36;10.75;;;7.63;;
14734;SDS011;7458;49.002;8.472;2022-11-20T03:44:05;9.32;;;6.97;;
14734;SDS011;7458;49.002;8.472;2022-11-20T03:46:34;10.20;;;6.75;;
14734;SDS011;7458;49.002;8.472;2022-11-20T03:49:00;7.63;;;6.22;;
14734;SDS011;7458;49.002;8.472;2022-11-20T03:51:27;12.15;;;8.20;;
14734;SDS011;7458;49.002;8.472;2022-11-20T03:53:56;10.43;;;7.22;;
14734;SDS011;7458;49.002;8.472;2022-11-20T03:56:26;10.18;;;7.03;;
14734;SDS011;7458;49.002;8.472;2022-11-20T03:58:55;13.02;;;6.43;;
14734;SDS011;7458;49.002;8.472;2022-11-20T04:01:23;8.75;;;7.55;;
14734;SDS011;7458;49.002;8.472;2022-11-20T04:03:56;10.98;;;7.18;;
14734;SDS011;7458;49.002;8.472;2022-11-20T04:06:23;9.25;;;7.07;;
14734;SDS011;7458;49.002;8.472;2022-11-20T04:08:58;12.98;;;7.38;;
14734;SDS011;7458;49.002;8.472;2022-11-20T04:13:56;14.55;;;8.35;;
14734;SDS011;7458;49.002;8.472;2022-11-20T04:16:26;7.85;;;6.45;;
14734;SDS011;7458;49.002;8.472;2022-11-20T04:18:56;9.73;;;7.35;;
14734;SDS011;7458;49.002;8.472;2022-11-20T04:21:25;8.05;;;5.95;;
14734;SDS011;7458;49.002;8.472;2022-11-20T04:23:52;6.85;;;6.15;;
14734;SDS011;7458;49.002;8.472;2022-11-20T04:26:19;9.05;;;6.97;;
14734;SDS011;7458;49.002;8.472;2022-11-20T04:28:47;10.15;;;5.75;;
14734;SDS011;7458;49.002;8.472;2022-11-20T04:31:14;8.15;;;6.93;;
14734;SDS011;7458;49.002;8.472;2022-11-20T04:33:43;10.40;;;7.25;;
14734;SDS011;7458;49.002;8.472;2022-11-20T04:36:13;10.30;;;7.72;;
14734;SDS011;7458;49.002;8.472;2022-11-20T04:38:55;9.25;;;6.63;;
14734;SDS011;7458;49.002;8.472;2022-11-20T04:41:30;13.55;;;6.65;;
14734;SDS011;7458;49.002;8.472;2022-11-20T04:44:00;13.27;;;7.82;;
14734;SDS011;7458;49.002;8.472;2022-11-20T04:46:28;10.63;;;7.53;;
14734;SDS011;7458;49.002;8.472;2022-11-20T04:48:58;9.57;;;6.95;;
14734;SDS011;7458;49.002;8.472;2022-11-20T04:51:24;11.30;;;7.53;;
14734;SDS011;7458;49.002;8.472;2022-11-20T04:53:51;7.90;;;7.10;;
14734;SDS011;7458;49.002;8.472;2022-11-20T04:56:17;7.60;;;6.18;;
14734;SDS011;7458;49.002;8.472;2022-11-20T04:58:43;7.57;;;5.88;;
14734;SDS011;7458;49.002;8.472;2022-11-20T05:01:13;8.88;;;6.75;;
14734;SDS011;7458;49.002;8.472;2022-11-20T05:03:43;8.75;;;6.85;;
14734;SDS011;7458;49.002;8.472;2022-11-20T05:06:11;9.93;;;6.07;;
14734;SDS011;7458;49.002;8.472;2022-11-20T05:08:39;9.32;;;7.70;;
14734;SDS011;7458;49.002;8.472;2022-11-20T05:11:10;9.77;;;6.93;;
14734;SDS011;7458;49.002;8.472;2022-11-20T05:13:39;6.95;;;5.57;;
14734;SDS011;7458;49.002;8.472;2022-11-20T05:16:07;8.57;;;5.93;;
14734;SDS011;7458;49.002;8.472;2022-11-20T05:18:36;8.07;;;6.25;;
14734;SDS011;7458;49.002;8.472;2022-11-20T05:21:02;7.38;;;6.28;;
14734;SDS011;7458;49.002;8.472;2022-11-20T05:23:30;9.07;;;6.72;;
14734;SDS011;7458;49.002;8.472;2022-11-20T05:25:57;7.97;;;5.85;;
14734;SDS011;7458;49.002;8.472;2022-11-20T05:28:23;11.55;;;7.68;;
14734;SDS011;7458;49.002;8.472;2022-11-20T05:30:51;8.15;;;6.13;;
14734;SDS011;7458;49.002;8.472;2022-11-20T05:33:17;5.90;;;5.25;;
14734;SDS011;7458;49.002;8.472;2022-11-20T05:35:43;6.80;;;5.65;;
14734;SDS011;7458;49.002;8.472;2022-11-20T05:38:09;11.40;;;6.05;;
14734;SDS011;7458;49.002;8.472;2022-11-20T05:40:35;7.28;;;5.40;;
14734;SDS011;7458;49.002;8.472;2022-11-20T05:43:01;5.72;;;5.13;;
14734;SDS011;7458;49.002;8.472;2022-11-20T05:45:27;7.50;;;5.80;;
14734;SDS011;7458;49.002;8.472;2022-11-20T05:47:53;6.38;;;5.40;;
14734;SDS011;7458;49.002;8.472;2022-11-20T05:50:23;6.90;;;6.05;;
14734;SDS011;7458;49.002;8.472;2022-11-20T05:52:48;7.47;;;4.60;;
14734;SDS011;7458;49.002;8.472;2022-11-20T05:55:14;6.93;;;5.70;;
14734;SDS011;7458;49.002;8.472;2022-11-20T05:57:40;11.30;;;5.05;;
14734;SDS011;7458;49.002;8.472;2022-11-20T06:00:06;6.80;;;5.70;;
14734;SDS011;7458;49.002;8.472;2022-11-20T06:02:34;6.30;;;5.18;;
14734;SDS011;7458;49.002;8.472;2022-11-20T06:05:00;5.82;;;5.10;;
14734;SDS011;7458;49.002;8.472;2022-11-20T06:07:26;5.22;;;4.25;;
14734;SDS011;7458;49.002;8.472;2022-11-20T06:09:52;5.88;;;5.07;;
14734;SDS011;7458;49.002;8.472;2022-11-20T06:12:18;6.15;;;4.43;;
14734;SDS011;7458;49.002;8.472;2022-11-20T06:14:43;7.25;;;5.22;;
14734;SDS011;7458;49.002;8.472;2022-11-20T06:17:09;7.72;;;4.82;;
14734;SDS011;7458;49.002;8.472;2022-11-20T06:19:35;7.88;;;5.28;;
14734;SDS011;7458;49.002;8.472;2022-11-20T06:22:00;5.85;;;4.50;;
14734;SDS011;7458;49.002;8.472;2022-11-20T06:24:26;4.72;;;3.88;;
14734;SDS011;7458;49.002;8.472;2022-11-20T06:26:52;8.45;;;4.55;;
14734;SDS011;7458;49.002;8.472;2022-11-20T06:29:17;6.15;;;5.35;;
14734;SDS011;7458;49.002;8.472;2022-11-20T06:31:43;5.40;;;4.43;;
14734;SDS011;7458;49.002;8.472;2022-11-20T06:34:09;5.75;;;4.70;;
14734;SDS011;7458;49.002;8.472;2022-11-20T06:36:35;10.90;;;4.90;;
14734;SDS011;7458;49.002;8.472;2022-11-20T06:39:01;6.68;;;4.88;;
14734;SDS011;7458;49.002;8.472;2022-11-20T06:41:27;4.60;;;3.80;;
14734;SDS011;7458;49.002;8.472;2022-11-20T06:43:53;7.88;;;4.68;;
14734;SDS011;7458;49.002;8.472;2022-11-20T06:46:19;6.63;;;4.22;;
14734;SDS011;7458;49.002;8.472;2022-11-20T06:48:46;6.00;;;3.75;;
14734;SDS011;7458;49.002;8.472;2022-11-20T06:51:14;5.60;;;3.78;;
14734;SDS011;7458;49.002;8.472;2022-11-20T06:53:40;7.00;;;4.65;;
14734;SDS011;7458;49.002;8.472;2022-11-20T06:56:06;7.63;;;5.00;;
14734;SDS011;7458;49.002;8.472;2022-11-20T06:58:33;6.57;;;4.80;;
14734;SDS011;7458;49.002;8.472;2022-11-20T07:01:02;7.07;;;4.78;;
14734;SDS011;7458;49.002;8.472;2022-11-20T07:03:35;5.75;;;5.07;;
14734;SDS011;7458;49.002;8.472;2022-11-20T07:06:02;5.22;;;4.28;;
14734;SDS011;7458;49.002;8.472;2022-11-20T07:08:29;5.18;;;4.20;;
14734;SDS011;7458;49.002;8.472;2022-11-20T07:10:57;8.75;;;3.90;;
14734;SDS011;7458;49.002;8.472;2022-11-20T07:13:25;5.72;;;4.00;;
14734;SDS011;7458;49.002;8.472;2022-11-20T07:15:52;6.35;;;4.53;;
14734;SDS011;7458;49.002;8.472;2022-11-20T07:18:18;5.43;;;3.70;;
14734;SDS011;7458;49.002;8.472;2022-11-20T07:20:44;4.82;;;3.67;;
14734;SDS011;7458;49.002;8.472;2022-11-20T07:23:10;5.07;;;4.47;;
14734;SDS011;7458;49.002;8.472;2022-11-20T07:25:35;9.75;;;4.78;;
14734;SDS011;7458;49.002;8.472;2022-11-20T07:28:01;7.57;;;5.53;;
14734;SDS011;7458;49.002;8.472;2022-11-20T07:30:29;5.05;;;4.35;;
14734;SDS011;7458;49.002;8.472;2022-11-20T07:32:55;6.05;;;4.38;;
14734;SDS011;7458;49.002;8.472;2022-11-20T07:35:22;11.75;;;5.03;;
14734;SDS011;7458;49.002;8.472;2022-11-20T07:37:49;4.93;;;4.18;;
14734;SDS011;7458;49.002;8.472;2022-11-20T07:40:15;6.13;;;4.32;;
14734;SDS011;7458;49.002;8.472;2022-11-20T07:42:48;6.40;;;4.43;;
14734;SDS011;7458;49.002;8.472;2022-11-20T07:45:16;3.78;;;3.15;;
14734;SDS011;7458;49.002;8.472;2022-11-20T07:47:46;5.47;;;3.75;;
14734;SDS011;7458;49.002;8.472;2022-11-20T07:50:12;5.13;;;4.25;;
14734;SDS011;7458;49.002;8.472;2022-11-20T07:52:38;5.82;;;4.18;;
14734;SDS011;7458;49.002;8.472;2022-11-20T07:55:05;5.38;;;4.50;;
14734;SDS011;7458;49.002;8.472;2022-11-20T07:57:32;5.68;;;4.55;;
14734;SDS011;7458;49.002;8.472;2022-11-20T07:59:58;10.73;;;5.20;;
14734;SDS011;7458;49.002;8.472;2022-11-20T08:02:24;8.07;;;4.38;;
14734;SDS011;7458;49.002;8.472;2022-11-20T08:04:49;6.05;;;4.05;;
14734;SDS011;7458;49.002;8.472;2022-11-20T08:07:16;8.55;;;5.97;;
14734;SDS011;7458;49.002;8.472;2022-11-20T08:09:42;4.95;;;4.25;;
14734;SDS011;7458;49.002;8.472;2022-11-20T08:12:08;5.78;;;3.97;;
14734;SDS011;7458;49.002;8.472;2022-11-20T08:15:06;5.32;;;4.18;;
14734;SDS011;7458;49.002;8.472;2022-11-20T08:17:33;7.82;;;4.80;;
14734;SDS011;7458;49.002;8.472;2022-11-20T08:19:59;7.65;;;5.45;;
14734;SDS011;7458;49.002;8.472;2022-11-20T08:22:24;7.80;;;5.28;;
14734;SDS011;7458;49.002;8.472;2022-11-20T08:24:50;8.27;;;5.57;;
14734;SDS011;7458;49.002;8.472;2022-11-20T08:27:16;7.55;;;4.80;;
14734;SDS011;7458;49.002;8.472;2022-11-20T08:29:42;7.93;;;5.45;;
14734;SDS011;7458;49.002;8.472;2022-11-20T08:32:07;7.53;;;5.90;;
14734;SDS011;7458;49.002;8.472;2022-11-20T08:34:33;7.55;;;5.75;;
14734;SDS011;7458;49.002;8.472;2022-11-20T08:36:59;6.00;;;4.82;;
14734;SDS011;7458;49.002;8.472;2022-11-20T08:39:27;9.18;;;4.25;;
14734;SDS011;7458;49.002;8.472;2022-11-20T08:41:53;6.63;;;5.75;;
14734;SDS011;7458;49.002;8.472;2022-11-20T08:44:19;7.15;;;5.28;;
14734;SDS011;7458;49.002;8.472;2022-11-20T08:46:44;6.70;;;5.18;;
14734;SDS011;7458;49.002;8.472;2022-11-20T08:49:12;8.75;;;5.93;;
14734;SDS011;7458;49.002;8.472;2022-11-20T08:51:39;9.32;;;5.70;;
14734;SDS011;7458;49.002;8.472;2022-11-20T08:54:06;30.00;;;6.70;;
14734;SDS011;7458;49.002;8.472;2022-11-20T08:56:33;8.85;;;4.93;;
14734;SDS011;7458;49.002;8.472;2022-11-20T08:58:59;7.65;;;6.25;;
14734;SDS011;7458;49.002;8.472;2022-11-20T09:01:25;8.20;;;5.40;;
14734;SDS011;7458;49.002;8.472;2022-11-20T09:03:52;6.18;;;5.25;;
14734;SDS011;7458;49.002;8.472;2022-11-20T09:06:24;7.93;;;5.22;;
14734;SDS011;7458;49.002;8.472;2022-11-20T09:08:53;8.57;;;5.35;;
14734;SDS011;7458;49.002;8.472;2022-11-20T09:11:20;7.65;;;4.85;;
14734;SDS011;7458;49.002;8.472;2022-11-20T09:13:46;7.72;;;5.45;;
14734;SDS011;7458;49.002;8.472;2022-11-20T09:16:12;5.53;;;4.03;;
14734;SDS011;7458;49.002;8.472;2022-11-20T09:18:37;6.32;;;5.68;;
14734;SDS011;7458;49.002;8.472;2022-11-20T09:21:08;4.90;;;4.35;;
14734;SDS011;7458;49.002;8.472;2022-11-20T09:23:37;7.60;;;5.63;;
14734;SDS011;7458;49.002;8.472;2022-11-20T09:26:04;10.88;;;5.50;;
14734;SDS011;7458;49.002;8.472;2022-11-20T09:28:40;6.78;;;5.20;;
14734;SDS011;7458;49.002;8.472;2022-11-20T09:31:13;7.03;;;5.35;;
14734;SDS011;7458;49.002;8.472;2022-11-20T09:33:48;7.22;;;4.82;;
14734;SDS011;7458;49.002;8.472;2022-11-20T09:36:14;8.25;;;6.47;;
14734;SDS011;7458;49.002;8.472;2022-11-20T09:38:40;8.05;;;5.57;;
14734;SDS011;7458;49.002;8.472;2022-11-20T09:41:06;6.60;;;4.95;;
14734;SDS011;7458;49.002;8.472;2022-11-20T09:55:36;7.15;;;6.25;;
14734;SDS011;7458;49.002;8.472;2022-11-20T09:58:05;10.95;;;6.63;;
14734;SDS011;7458;49.002;8.472;2022-11-20T10:00:40;7.60;;;6.05;;
14734;SDS011;7458;49.002;8.472;2022-11-20T10:06:20;9.00;;;8.10;;
14734;SDS011;7458;49.002;8.472;2022-11-20T10:21:07;9.43;;;6.80;;
14734;SDS011;7458;49.002;8.472;2022-11-20T10:27:15;8.18;;;6.38;;
14734;SDS011;7458;49.002;8.472;2022-11-20T10:30:18;6.75;;;5.72;;
14734;SDS011;7458;49.002;8.472;2022-11-20T10:32:50;6.80;;;6.10;;
14734;SDS011;7458;49.002;8.472;2022-11-20T10:35:27;9.20;;;7.25;;
14734;SDS011;7458;49.002;8.472;2022-11-20T10:38:05;7.72;;;6.05;;
14734;SDS011;7458;49.002;8.472;2022-11-20T10:40:56;7.80;;;6.07;;
14734;SDS011;7458;49.002;8.472;2022-11-20T10:43:44;6.13;;;5.47;;
14734;SDS011;7458;49.002;8.472;2022-11-20T10:46:33;6.97;;;5.50;;
14734;SDS011;7458;49.002;8.472;2022-11-20T10:49:25;11.00;;;8.00;;
14734;SDS011;7458;49.002;8.472;2022-11-20T11:02:34;8.23;;;6.28;;
14734;SDS011;7458;49.002;8.472;2022-11-20T11:08:14;8.63;;;5.90;;
14734;SDS011;7458;49.002;8.472;2022-11-20T11:10:53;9.48;;;5.63;;
14734;SDS011;7458;49.002;8.472;2022-11-20T11:13:32;6.78;;;5.68;;
14734;SDS011;7458;49.002;8.472;2022-11-20T11:15:58;7.10;;;4.65;;
14734;SDS011;7458;49.002;8.472;2022-11-20T11:18:31;11.35;;;5.82;;
14734;SDS011;7458;49.002;8.472;2022-11-20T11:21:00;7.40;;;5.37;;
14734;SDS011;7458;49.002;8.472;2022-11-20T11:26:06;6.32;;;4.72;;
14734;SDS011;7458;49.002;8.472;2022-11-20T11:28:58;6.10;;;4.20;;
14734;SDS011;7458;49.002;8.472;2022-11-20T11:31:32;9.50;;;5.43;;
14734;SDS011;7458;49.002;8.472;2022-11-20T11:34:06;7.47;;;6.35;;
14734;SDS011;7458;49.002;8.472;2022-11-20T11:36:37;7.63;;;4.80;;
14734;SDS011;7458;49.002;8.472;2022-11-20T11:39:09;7.15;;;5.22;;
14734;SDS011;7458;49.002;8.472;2022-11-20T11:41:40;7.50;;;4.75;;
14734;SDS011;7458;49.002;8.472;2022-11-20T11:44:17;7.53;;;5.28;;
14734;SDS011;7458;49.002;8.472;2022-11-20T11:50:02;5.13;;;4.20;;
14734;SDS011;7458;49.002;8.472;2022-11-20T11:52:44;8.15;;;3.92;;
14734;SDS011;7458;49.002;8.472;2022-11-20T12:00:34;5.57;;;3.75;;
14734;SDS011;7458;49.002;8.472;2022-11-20T12:03:15;7.03;;;3.95;;
14734;SDS011;7458;49.002;8.472;2022-11-20T12:06:15;12.50;;;3.85;;
14734;SDS011;7458;49.002;8.472;2022-11-20T12:08:53;4.32;;;3.45;;
14734;SDS011;7458;49.002;8.472;2022-11-20T12:13:58;6.50;;;3.33;;
14734;SDS011;7458;49.002;8.472;2022-11-20T12:16:51;4.20;;;3.80;;
14734;SDS011;7458;49.002;8.472;2022-11-20T12:19:20;4.80;;;3.55;;
14734;SDS011;7458;49.002;8.472;2022-11-20T12:30:54;5.43;;;2.95;;
14734;SDS011;7458;49.002;8.472;2022-11-20T12:39:33;16.58;;;3.13;;
14734;SDS011;7458;49.002;8.472;2022-11-20T12:42:16;9.45;;;3.13;;
14734;SDS011;7458;49.002;8.472;2022-11-20T12:53:57;3.47;;;2.67;;
14734;SDS011;7458;49.002;8.472;2022-11-20T12:57:15;3.33;;;2.63;;
14734;SDS011;7458;49.002;8.472;2022-11-20T13:00:27;6.35;;;1.98;;
14734;SDS011;7458;49.002;8.472;2022-11-20T13:08:23;5.15;;;2.50;;
14734;SDS011;7458;49.002;8.472;2022-11-20T13:11:14;5.55;;;3.15;;
14734;SDS011;7458;49.002;8.472;2022-11-20T13:14:07;5.63;;;2.25;;
14734;SDS011;7458;49.002;8.472;2022-11-20T13:16:46;7.40;;;2.80;;
14734;SDS011;7458;49.002;8.472;2022-11-20T13:19:23;2.60;;;1.70;;
14734;SDS011;7458;49.002;8.472;2022-11-20T13:21:51;5.85;;;2.13;;
14734;SDS011;7458;49.002;8.472;2022-11-20T13:29:30;3.87;;;2.17;;
14734;SDS011;7458;49.002;8.472;2022-11-20T13:32:04;5.38;;;4.20;;
14734;SDS011;7458;49.002;8.472;2022-11-20T13:34:37;15.48;;;8.38;;
14734;SDS011;7458;49.002;8.472;2022-11-20T13:37:02;4.80;;;2.70;;
14734;SDS011;7458;49.002;8.472;2022-11-20T13:39:32;4.15;;;2.30;;
14734;SDS011;7458;49.002;8.472;2022-11-20T13:44:39;5.18;;;3.10;;
14734;SDS011;7458;49.002;8.472;2022-11-20T13:47:24;3.55;;;2.08;;
14734;SDS011;7458;49.002;8.472;2022-11-20T13:49:53;4.15;;;1.75;;
14734;SDS011;7458;49.002;8.472;2022-11-20T13:58:21;5.10;;;2.47;;
14734;SDS011;7458;49.002;8.472;2022-11-20T14:01:29;3.25;;;2.35;;
14734;SDS011;7458;49.002;8.472;2022-11-20T14:03:56;6.47;;;2.17;;
14734;SDS011;7458;49.002;8.472;2022-11-20T14:06:30;9.60;;;2.03;;
14734;SDS011;7458;49.002;8.472;2022-11-20T14:09:09;4.00;;;1.95;;
14734;SDS011;7458;49.002;8.472;2022-11-20T14:11:45;6.80;;;2.28;;
14734;SDS011;7458;49.002;8.472;2022-11-20T14:14:16;5.70;;;2.05;;
14734;SDS011;7458;49.002;8.472;2022-11-20T14:16:46;4.55;;;2.30;;
14734;SDS011;7458;49.002;8.472;2022-11-20T14:21:45;2.78;;;2.38;;
14734;SDS011;7458;49.002;8.472;2022-11-20T14:24:20;4.68;;;2.40;;
14734;SDS011;7458;49.002;8.472;2022-11-20T14:26:49;4.43;;;2.60;;
14734;SDS011;7458;49.002;8.472;2022-11-20T14:29:17;3.40;;;2.00;;
14734;SDS011;7458;49.002;8.472;2022-11-20T14:31:47;3.95;;;2.08;;
14734;SDS011;7458;49.002;8.472;2022-11-20T14:34:21;5.30;;;2.30;;
14734;SDS011;7458;49.002;8.472;2022-11-20T14:36:52;3.80;;;2.40;;
14734;SDS011;7458;49.002;8.472;2022-11-20T14:39:51;11.20;;;2.63;;
14734;SDS011;7458;49.002;8.472;2022-11-20T14:44:49;3.30;;;1.80;;
14734;SDS011;7458;49.002;8.472;2022-11-20T14:47:21;4.90;;;2.53;;
14734;SDS011;7458;49.002;8.472;2022-11-20T14:49:51;4.32;;;1.95;;
14734;SDS011;7458;49.002;8.472;2022-11-20T14:52:23;4.60;;;2.53;;
14734;SDS011;7458;49.002;8.472;2022-11-20T15:00:05;3.45;;;2.42;;
14734;SDS011;7458;49.002;8.472;2022-11-20T15:02:38;6.43;;;2.22;;
14734;SDS011;7458;49.002;8.472;2022-11-20T15:05:07;4.15;;;1.63;;
14734;SDS011;7458;49.002;8.472;2022-11-20T15:07:37;5.50;;;2.90;;
14734;SDS011;7458;49.002;8.472;2022-11-20T15:10:11;4.90;;;2.60;;
14734;SDS011;7458;49.002;8.472;2022-11-20T15:12:47;3.95;;;1.98;;
14734;SDS011;7458;49.002;8.472;2022-11-20T15:15:18;5.75;;;2.67;;
14734;SDS011;7458;49.002;8.472;2022-11-20T15:17:54;3.10;;;2.05;;
14734;SDS011;7458;49.002;8.472;2022-11-20T15:20:20;9.82;;;2.35;;
14734;SDS011;7458;49.002;8.472;2022-11-20T15:22:53;2.72;;;1.75;;
14734;SDS011;7458;49.002;8.472;2022-11-20T15:25:20;5.15;;;2.28;;
14734;SDS011;7458;49.002;8.472;2022-11-20T15:27:46;5.22;;;1.73;;
14734;SDS011;7458;49.002;8.472;2022-11-20T15:30:19;4.97;;;2.28;;
14734;SDS011;7458;49.002;8.472;2022-11-20T15:32:46;4.13;;;2.50;;
14734;SDS011;7458;49.002;8.472;2022-11-20T15:35:13;4.68;;;2.40;;
14734;SDS011;7458;49.002;8.472;2022-11-20T15:37:40;5.47;;;2.25;;
14734;SDS011;7458;49.002;8.472;2022-11-20T15:40:07;4.43;;;2.67;;
14734;SDS011;7458;49.002;8.472;2022-11-20T15:42:34;6.20;;;3.28;;
14734;SDS011;7458;49.002;8.472;2022-11-20T15:45:00;7.35;;;3.50;;
14734;SDS011;7458;49.002;8.472;2022-11-20T15:47:27;7.07;;;3.38;;
14734;SDS011;7458;49.002;8.472;2022-11-20T15:49:57;9.18;;;3.28;;
14734;SDS011;7458;49.002;8.472;2022-11-20T15:52:23;4.93;;;3.15;;
14734;SDS011;7458;49.002;8.472;2022-11-20T15:54:49;5.25;;;2.85;;
14734;SDS011;7458;49.002;8.472;2022-11-20T15:57:15;3.88;;;2.92;;
14734;SDS011;7458;49.002;8.472;2022-11-20T15:59:41;7.57;;;2.45;;
14734;SDS011;7458;49.002;8.472;2022-11-20T16:02:10;4.75;;;2.60;;
14734;SDS011;7458;49.002;8.472;2022-11-20T16:04:37;8.00;;;3.13;;
14734;SDS011;7458;49.002;8.472;2022-11-20T16:07:03;4.90;;;2.42;;
14734;SDS011;7458;49.002;8.472;2022-11-20T16:09:29;4.40;;;2.20;;
14734;SDS011;7458;49.002;8.472;2022-11-20T16:11:55;3.50;;;2.30;;
14734;SDS011;7458;49.002;8.472;2022-11-20T16:14:23;3.33;;;2.40;;
14734;SDS011;7458;49.002;8.472;2022-11-20T16:17:07;5.25;;;2.30;;
14734;SDS011;7458;49.002;8.472;2022-11-20T16:19:33;4.28;;;2.42;;
14734;SDS011;7458;49.002;8.472;2022-11-20T16:21:58;3.08;;;2.30;;
14734;SDS011;7458;49.002;8.472;2022-11-20T16:24:27;3.33;;;2.33;;
14734;SDS011;7458;49.002;8.472;2022-11-20T16:26:53;7.13;;;3.40;;
14734;SDS011;7458;49.002;8.472;2022-11-20T16:29:20;7.88;;;3.65;;
14734;SDS011;7458;49.002;8.472;2022-11-20T16:31:45;4.95;;;3.30;;
14734;SDS011;7458;49.002;8.472;2022-11-20T16:34:12;6.30;;;3.80;;
14734;SDS011;7458;49.002;8.472;2022-11-20T16:36:41;5.57;;;3.25;;
14734;SDS011;7458;49.002;8.472;2022-11-20T16:39:09;4.50;;;2.50;;
14734;SDS011;7458;49.002;8.472;2022-11-20T16:41:36;3.38;;;2.90;;
14734;SDS011;7458;49.002;8.472;2022-11-20T16:44:06;5.15;;;3.80;;
14734;SDS011;7458;49.002;8.472;2022-11-20T16:46:35;6.70;;;3.35;;
14734;SDS011;7458;49.002;8.472;2022-11-20T16:49:03;8.07;;;5.38;;
14734;SDS011;7458;49.002;8.472;2022-11-20T16:51:33;6.65;;;5.53;;
14734;SDS011;7458;49.002;8.472;2022-11-20T16:54:00;10.32;;;5.22;;
14734;SDS011;7458;49.002;8.472;2022-11-20T16:56:29;7.80;;;5.72;;
14734;SDS011;7458;49.002;8.472;2022-11-20T16:58:55;6.43;;;3.50;;
14734;SDS011;7458;49.002;8.472;2022-11-20T17:01:23;4.60;;;3.75;;
14734;SDS011;7458;49.002;8.472;2022-11-20T17:03:59;7.45;;;4.13;;
14734;SDS011;7458;49.002;8.472;2022-11-20T17:06:28;6.50;;;4.55;;
14734;SDS011;7458;49.002;8.472;2022-11-20T17:08:57;9.85;;;4.35;;
14734;SDS011;7458;49.002;8.472;2022-11-20T17:11:23;9.38;;;4.57;;
14734;SDS011;7458;49.002;8.472;2022-11-20T17:13:51;5.88;;;4.47;;